sensor_id;sensor_type;location;lat;lon;timestamp;P1;durP1;ratioP1;P2;durP2;ratioP2
1136;SDS011;557;48.466;7.950;2022-09-17T00:00:12;2.60;;;2.40;;
1136;SDS011;557;48.466;7.950;2022-09-17T00:02:58;2.83;;;2.63;;
1136;SDS011;557;48.466;7.950;2022-09-17T00:05:44;2.37;;;2.00;;
1136;SDS011;557;48.466;7.950;2022-09-17T00:08:31;2.43;;;2.20;;
1136;SDS011;557;48.466;7.950;2022-09-17T00:11:18;2.70;;;2.50;;
1136;SDS011;557;48.466;7.950;2022-09-17T00:14:07;2.63;;;2.43;;
1136;SDS011;557;48.466;7.950;2022-09-17T00:16:56;2.60;;;2.40;;
1136;SDS011;557;48.466;7.950;2022-09-17T00:19:42;2.53;;;2.33;;
1136;SDS011;557;48.466;7.950;2022-09-17T00:22:27;2.60;;;2.40;;
1136;SDS011;557;48.466;7.950;2022-09-17T00:25:13;2.97;;;2.37;;
1136;SDS011;557;48.466;7.950;2022-09-17T00:27:59;2.20;;;2.00;;
1136;SDS011;557;48.466;7.950;2022-09-17T00:30:46;3.87;;;2.07;;
1136;SDS011;557;48.466;7.950;2022-09-17T00:33:32;3.27;;;2.03;;
1136;SDS011;557;48.466;7.950;2022-09-17T00:36:18;3.10;;;2.20;;
1136;SDS011;557;48.466;7.950;2022-09-17T00:39:05;2.77;;;2.10;;
1136;SDS011;557;48.466;7.950;2022-09-17T00:41:52;3.03;;;2.10;;
1136;SDS011;557;48.466;7.950;2022-09-17T00:44:38;2.47;;;2.00;;
1136;SDS011;557;48.466;7.950;2022-09-17T00:47:32;2.10;;;1.87;;
1136;SDS011;557;48.466;7.950;2022-09-17T00:50:22;2.50;;;2.10;;
1136;SDS011;557;48.466;7.950;2022-09-17T00:53:12;2.43;;;1.83;;
1136;SDS011;557;48.466;7.950;2022-09-17T00:56:01;2.33;;;1.90;;
1136;SDS011;557;48.466;7.950;2022-09-17T00:58:50;1.97;;;1.80;;
1136;SDS011;557;48.466;7.950;2022-09-17T01:01:37;1.83;;;1.63;;
1136;SDS011;557;48.466;7.950;2022-09-17T01:04:24;3.33;;;1.77;;
1136;SDS011;557;48.466;7.950;2022-09-17T01:07:12;3.20;;;1.87;;
1136;SDS011;557;48.466;7.950;2022-09-17T01:10:11;1.87;;;1.70;;
1136;SDS011;557;48.466;7.950;2022-09-17T01:13:11;1.90;;;1.30;;
1136;SDS011;557;48.466;7.950;2022-09-17T01:16:09;2.43;;;1.40;;
1136;SDS011;557;48.466;7.950;2022-09-17T01:19:10;2.37;;;1.07;;
1136;SDS011;557;48.466;7.950;2022-09-17T01:22:12;1.90;;;1.20;;
1136;SDS011;557;48.466;7.950;2022-09-17T01:28:19;2.67;;;1.60;;
1136;SDS011;557;48.466;7.950;2022-09-17T01:31:28;2.40;;;1.40;;
1136;SDS011;557;48.466;7.950;2022-09-17T01:34:21;1.70;;;1.40;;
1136;SDS011;557;48.466;7.950;2022-09-17T01:37:12;1.87;;;1.47;;
1136;SDS011;557;48.466;7.950;2022-09-17T01:40:04;2.83;;;1.40;;
1136;SDS011;557;48.466;7.950;2022-09-17T01:42:56;1.83;;;1.20;;
1136;SDS011;557;48.466;7.950;2022-09-17T01:45:49;3.80;;;1.07;;
1136;SDS011;557;48.466;7.950;2022-09-17T01:48:39;1.50;;;0.90;;
1136;SDS011;557;48.466;7.950;2022-09-17T01:51:28;1.70;;;1.10;;
1136;SDS011;557;48.466;7.950;2022-09-17T01:54:21;2.43;;;1.40;;
1136;SDS011;557;48.466;7.950;2022-09-17T01:57:11;1.70;;;1.10;;
1136;SDS011;557;48.466;7.950;2022-09-17T02:00:02;1.70;;;1.07;;
1136;SDS011;557;48.466;7.950;2022-09-17T02:02:52;2.70;;;1.53;;
1136;SDS011;557;48.466;7.950;2022-09-17T02:05:47;2.13;;;1.47;;
1136;SDS011;557;48.466;7.950;2022-09-17T02:08:51;2.80;;;1.20;;
1136;SDS011;557;48.466;7.950;2022-09-17T02:11:40;1.70;;;1.30;;
1136;SDS011;557;48.466;7.950;2022-09-17T02:14:32;2.27;;;1.37;;
1136;SDS011;557;48.466;7.950;2022-09-17T02:17:21;1.40;;;1.00;;
1136;SDS011;557;48.466;7.950;2022-09-17T02:20:14;2.67;;;1.27;;
1136;SDS011;557;48.466;7.950;2022-09-17T02:23:03;4.30;;;1.30;;
1136;SDS011;557;48.466;7.950;2022-09-17T02:25:57;4.43;;;1.40;;
1136;SDS011;557;48.466;7.950;2022-09-17T02:28:48;2.43;;;1.50;;
1136;SDS011;557;48.466;7.950;2022-09-17T02:31:38;2.10;;;1.30;;
1136;SDS011;557;48.466;7.950;2022-09-17T02:34:24;2.10;;;1.40;;
1136;SDS011;557;48.466;7.950;2022-09-17T02:37:12;2.30;;;1.30;;
1136;SDS011;557;48.466;7.950;2022-09-17T02:39:59;1.80;;;1.33;;
1136;SDS011;557;48.466;7.950;2022-09-17T02:42:51;2.13;;;1.27;;
1136;SDS011;557;48.466;7.950;2022-09-17T02:45:48;1.97;;;1.13;;
1136;SDS011;557;48.466;7.950;2022-09-17T02:48:54;2.60;;;1.50;;
1136;SDS011;557;48.466;7.950;2022-09-17T02:51:51;2.80;;;1.30;;
1136;SDS011;557;48.466;7.950;2022-09-17T02:54:46;3.10;;;1.37;;
1136;SDS011;557;48.466;7.950;2022-09-17T02:57:38;2.00;;;1.70;;
1136;SDS011;557;48.466;7.950;2022-09-17T03:00:29;2.33;;;1.10;;
1136;SDS011;557;48.466;7.950;2022-09-17T03:03:16;2.23;;;1.17;;
1136;SDS011;557;48.466;7.950;2022-09-17T03:06:05;1.87;;;1.30;;
1136;SDS011;557;48.466;7.950;2022-09-17T03:08:51;2.63;;;1.67;;
1136;SDS011;557;48.466;7.950;2022-09-17T03:11:37;3.47;;;1.33;;
1136;SDS011;557;48.466;7.950;2022-09-17T03:14:24;2.83;;;1.57;;
1136;SDS011;557;48.466;7.950;2022-09-17T03:17:10;1.90;;;1.30;;
1136;SDS011;557;48.466;7.950;2022-09-17T03:19:57;2.23;;;1.30;;
1136;SDS011;557;48.466;7.950;2022-09-17T03:22:43;2.67;;;1.20;;
1136;SDS011;557;48.466;7.950;2022-09-17T03:25:29;2.23;;;1.47;;
1136;SDS011;557;48.466;7.950;2022-09-17T03:28:15;3.00;;;1.40;;
1136;SDS011;557;48.466;7.950;2022-09-17T03:31:02;1.90;;;1.20;;
1136;SDS011;557;48.466;7.950;2022-09-17T03:33:49;3.17;;;1.40;;
1136;SDS011;557;48.466;7.950;2022-09-17T03:36:35;2.17;;;1.30;;
1136;SDS011;557;48.466;7.950;2022-09-17T03:39:22;2.07;;;1.13;;
1136;SDS011;557;48.466;7.950;2022-09-17T03:42:08;2.03;;;1.40;;
1136;SDS011;557;48.466;7.950;2022-09-17T03:44:53;2.10;;;1.30;;
1136;SDS011;557;48.466;7.950;2022-09-17T03:47:41;1.80;;;1.20;;
1136;SDS011;557;48.466;7.950;2022-09-17T03:50:27;1.70;;;1.30;;
1136;SDS011;557;48.466;7.950;2022-09-17T03:53:12;2.00;;;1.40;;
1136;SDS011;557;48.466;7.950;2022-09-17T03:56:00;1.60;;;1.43;;
1136;SDS011;557;48.466;7.950;2022-09-17T03:58:46;2.10;;;1.43;;
1136;SDS011;557;48.466;7.950;2022-09-17T04:01:32;2.70;;;1.33;;
1136;SDS011;557;48.466;7.950;2022-09-17T04:04:21;4.37;;;2.50;;
1136;SDS011;557;48.466;7.950;2022-09-17T04:07:06;2.63;;;1.30;;
1136;SDS011;557;48.466;7.950;2022-09-17T04:09:52;2.37;;;1.30;;
1136;SDS011;557;48.466;7.950;2022-09-17T04:12:37;1.90;;;1.40;;
1136;SDS011;557;48.466;7.950;2022-09-17T04:15:23;1.97;;;1.30;;
1136;SDS011;557;48.466;7.950;2022-09-17T04:18:09;2.30;;;1.23;;
1136;SDS011;557;48.466;7.950;2022-09-17T04:20:56;2.47;;;1.13;;
1136;SDS011;557;48.466;7.950;2022-09-17T04:23:41;2.47;;;1.13;;
1136;SDS011;557;48.466;7.950;2022-09-17T04:26:27;2.60;;;1.40;;
1136;SDS011;557;48.466;7.950;2022-09-17T04:29:12;3.03;;;2.13;;
1136;SDS011;557;48.466;7.950;2022-09-17T04:32:00;3.17;;;1.40;;
1136;SDS011;557;48.466;7.950;2022-09-17T04:34:46;2.03;;;1.17;;
1136;SDS011;557;48.466;7.950;2022-09-17T04:37:33;1.73;;;1.23;;
1136;SDS011;557;48.466;7.950;2022-09-17T04:40:20;2.03;;;1.27;;
1136;SDS011;557;48.466;7.950;2022-09-17T04:43:07;3.90;;;1.63;;
1136;SDS011;557;48.466;7.950;2022-09-17T04:45:53;2.83;;;1.50;;
1136;SDS011;557;48.466;7.950;2022-09-17T04:48:38;2.97;;;1.30;;
1136;SDS011;557;48.466;7.950;2022-09-17T04:51:24;2.20;;;1.50;;
1136;SDS011;557;48.466;7.950;2022-09-17T04:54:11;2.60;;;1.57;;
1136;SDS011;557;48.466;7.950;2022-09-17T04:56:57;2.27;;;1.50;;
1136;SDS011;557;48.466;7.950;2022-09-17T04:59:43;2.57;;;1.33;;
1136;SDS011;557;48.466;7.950;2022-09-17T05:02:29;2.27;;;1.50;;
1136;SDS011;557;48.466;7.950;2022-09-17T05:05:15;2.30;;;1.67;;
1136;SDS011;557;48.466;7.950;2022-09-17T05:08:01;2.07;;;1.63;;
1136;SDS011;557;48.466;7.950;2022-09-17T05:10:49;4.17;;;1.80;;
1136;SDS011;557;48.466;7.950;2022-09-17T05:13:35;4.00;;;1.97;;
1136;SDS011;557;48.466;7.950;2022-09-17T05:16:20;2.03;;;1.40;;
1136;SDS011;557;48.466;7.950;2022-09-17T05:19:06;2.43;;;1.23;;
1136;SDS011;557;48.466;7.950;2022-09-17T05:21:51;2.03;;;1.40;;
1136;SDS011;557;48.466;7.950;2022-09-17T05:24:37;3.60;;;1.90;;
1136;SDS011;557;48.466;7.950;2022-09-17T05:27:25;2.10;;;1.30;;
1136;SDS011;557;48.466;7.950;2022-09-17T05:30:11;1.87;;;1.40;;
1136;SDS011;557;48.466;7.950;2022-09-17T05:33:00;2.63;;;1.50;;
1136;SDS011;557;48.466;7.950;2022-09-17T05:35:46;2.97;;;1.37;;
1136;SDS011;557;48.466;7.950;2022-09-17T05:38:31;4.10;;;1.40;;
1136;SDS011;557;48.466;7.950;2022-09-17T05:41:17;2.90;;;1.50;;
1136;SDS011;557;48.466;7.950;2022-09-17T05:44:04;4.20;;;1.77;;
1136;SDS011;557;48.466;7.950;2022-09-17T05:46:51;2.30;;;1.30;;
1136;SDS011;557;48.466;7.950;2022-09-17T05:49:37;2.77;;;1.47;;
1136;SDS011;557;48.466;7.950;2022-09-17T05:52:25;2.90;;;1.37;;
1136;SDS011;557;48.466;7.950;2022-09-17T05:55:12;1.80;;;1.30;;
1136;SDS011;557;48.466;7.950;2022-09-17T05:57:57;3.03;;;1.60;;
1136;SDS011;557;48.466;7.950;2022-09-17T06:00:45;3.20;;;1.40;;
1136;SDS011;557;48.466;7.950;2022-09-17T06:03:31;2.10;;;1.43;;
1136;SDS011;557;48.466;7.950;2022-09-17T06:06:17;2.80;;;1.70;;
1136;SDS011;557;48.466;7.950;2022-09-17T06:09:03;2.43;;;2.07;;
1136;SDS011;557;48.466;7.950;2022-09-17T06:11:48;3.40;;;1.40;;
1136;SDS011;557;48.466;7.950;2022-09-17T06:14:34;1.97;;;1.27;;
1136;SDS011;557;48.466;7.950;2022-09-17T06:17:21;3.13;;;1.43;;
1136;SDS011;557;48.466;7.950;2022-09-17T06:20:07;3.20;;;2.00;;
1136;SDS011;557;48.466;7.950;2022-09-17T06:22:56;1.70;;;1.20;;
1136;SDS011;557;48.466;7.950;2022-09-17T06:25:42;4.73;;;2.87;;
1136;SDS011;557;48.466;7.950;2022-09-17T06:28:29;2.17;;;1.50;;
1136;SDS011;557;48.466;7.950;2022-09-17T06:31:15;4.63;;;1.30;;
1136;SDS011;557;48.466;7.950;2022-09-17T06:34:02;6.37;;;1.57;;
1136;SDS011;557;48.466;7.950;2022-09-17T06:36:48;3.83;;;1.53;;
1136;SDS011;557;48.466;7.950;2022-09-17T06:39:33;3.90;;;1.90;;
1136;SDS011;557;48.466;7.950;2022-09-17T06:42:19;4.37;;;1.50;;
1136;SDS011;557;48.466;7.950;2022-09-17T06:45:06;2.07;;;1.50;;
1136;SDS011;557;48.466;7.950;2022-09-17T06:47:52;2.67;;;1.60;;
1136;SDS011;557;48.466;7.950;2022-09-17T06:50:39;7.10;;;1.53;;
1136;SDS011;557;48.466;7.950;2022-09-17T06:53:25;4.00;;;1.50;;
1136;SDS011;557;48.466;7.950;2022-09-17T06:56:12;2.47;;;1.63;;
1136;SDS011;557;48.466;7.950;2022-09-17T06:58:57;4.37;;;1.60;;
1136;SDS011;557;48.466;7.950;2022-09-17T07:01:43;2.00;;;1.30;;
1136;SDS011;557;48.466;7.950;2022-09-17T07:04:30;2.97;;;1.80;;
1136;SDS011;557;48.466;7.950;2022-09-17T07:07:17;2.57;;;1.60;;
1136;SDS011;557;48.466;7.950;2022-09-17T07:10:03;2.73;;;1.50;;
1136;SDS011;557;48.466;7.950;2022-09-17T07:12:49;2.20;;;1.30;;
1136;SDS011;557;48.466;7.950;2022-09-17T07:15:36;2.63;;;1.70;;
1136;SDS011;557;48.466;7.950;2022-09-17T07:18:21;3.20;;;1.80;;
1136;SDS011;557;48.466;7.950;2022-09-17T07:21:08;2.70;;;1.70;;
1136;SDS011;557;48.466;7.950;2022-09-17T07:23:55;3.17;;;1.70;;
1136;SDS011;557;48.466;7.950;2022-09-17T07:26:41;3.17;;;1.90;;
1136;SDS011;557;48.466;7.950;2022-09-17T07:29:26;2.37;;;1.47;;
1136;SDS011;557;48.466;7.950;2022-09-17T07:32:12;3.23;;;1.43;;
1136;SDS011;557;48.466;7.950;2022-09-17T07:34:57;3.23;;;1.33;;
1136;SDS011;557;48.466;7.950;2022-09-17T07:37:43;2.73;;;1.67;;
1136;SDS011;557;48.466;7.950;2022-09-17T07:40:31;1.50;;;1.20;;
1136;SDS011;557;48.466;7.950;2022-09-17T07:43:17;6.50;;;2.13;;
1136;SDS011;557;48.466;7.950;2022-09-17T07:46:03;2.77;;;1.53;;
1136;SDS011;557;48.466;7.950;2022-09-17T07:48:52;4.83;;;2.03;;
1136;SDS011;557;48.466;7.950;2022-09-17T07:51:38;2.53;;;1.60;;
1136;SDS011;557;48.466;7.950;2022-09-17T07:54:23;2.80;;;1.80;;
1136;SDS011;557;48.466;7.950;2022-09-17T07:57:10;2.00;;;1.23;;
1136;SDS011;557;48.466;7.950;2022-09-17T07:59:56;4.50;;;2.13;;
1136;SDS011;557;48.466;7.950;2022-09-17T08:02:41;2.20;;;1.30;;
1136;SDS011;557;48.466;7.950;2022-09-17T08:05:27;3.67;;;1.50;;
1136;SDS011;557;48.466;7.950;2022-09-17T08:08:12;2.20;;;1.40;;
1136;SDS011;557;48.466;7.950;2022-09-17T08:10:59;2.00;;;1.40;;
1136;SDS011;557;48.466;7.950;2022-09-17T08:13:47;2.33;;;1.50;;
1136;SDS011;557;48.466;7.950;2022-09-17T08:16:35;2.93;;;1.43;;
1136;SDS011;557;48.466;7.950;2022-09-17T08:19:21;2.90;;;1.47;;
1136;SDS011;557;48.466;7.950;2022-09-17T08:22:08;2.50;;;1.50;;
1136;SDS011;557;48.466;7.950;2022-09-17T08:24:53;2.17;;;1.30;;
1136;SDS011;557;48.466;7.950;2022-09-17T08:27:39;6.30;;;1.30;;
1136;SDS011;557;48.466;7.950;2022-09-17T08:30:26;2.47;;;1.50;;
1136;SDS011;557;48.466;7.950;2022-09-17T08:33:12;2.87;;;1.13;;
1136;SDS011;557;48.466;7.950;2022-09-17T08:35:57;2.57;;;1.90;;
1136;SDS011;557;48.466;7.950;2022-09-17T08:38:43;3.50;;;1.00;;
1136;SDS011;557;48.466;7.950;2022-09-17T08:41:32;3.67;;;2.03;;
1136;SDS011;557;48.466;7.950;2022-09-17T08:44:26;1.70;;;1.17;;
1136;SDS011;557;48.466;7.950;2022-09-17T08:47:22;2.23;;;1.40;;
1136;SDS011;557;48.466;7.950;2022-09-17T08:50:12;1.80;;;1.30;;
1136;SDS011;557;48.466;7.950;2022-09-17T08:53:06;5.63;;;2.00;;
1136;SDS011;557;48.466;7.950;2022-09-17T08:56:12;2.43;;;1.27;;
1136;SDS011;557;48.466;7.950;2022-09-17T08:59:03;2.77;;;1.20;;
1136;SDS011;557;48.466;7.950;2022-09-17T09:01:57;2.10;;;1.30;;
1136;SDS011;557;48.466;7.950;2022-09-17T09:04:59;3.13;;;1.40;;
1136;SDS011;557;48.466;7.950;2022-09-17T09:07:50;2.17;;;1.50;;
1136;SDS011;557;48.466;7.950;2022-09-17T09:10:43;3.27;;;1.40;;
1136;SDS011;557;48.466;7.950;2022-09-17T09:13:32;3.17;;;1.50;;
1136;SDS011;557;48.466;7.950;2022-09-17T09:16:22;3.17;;;1.47;;
1136;SDS011;557;48.466;7.950;2022-09-17T09:19:16;2.80;;;1.90;;
1136;SDS011;557;48.466;7.950;2022-09-17T09:22:11;2.53;;;1.33;;
1136;SDS011;557;48.466;7.950;2022-09-17T09:25:08;3.80;;;1.40;;
1136;SDS011;557;48.466;7.950;2022-09-17T09:28:05;3.50;;;1.67;;
1136;SDS011;557;48.466;7.950;2022-09-17T09:31:01;8.93;;;1.93;;
1136;SDS011;557;48.466;7.950;2022-09-17T09:33:53;1.87;;;1.33;;
1136;SDS011;557;48.466;7.950;2022-09-17T09:36:40;2.60;;;1.50;;
1136;SDS011;557;48.466;7.950;2022-09-17T09:39:28;4.73;;;1.60;;
1136;SDS011;557;48.466;7.950;2022-09-17T09:42:26;3.10;;;1.67;;
1136;SDS011;557;48.466;7.950;2022-09-17T09:45:15;4.30;;;1.60;;
1136;SDS011;557;48.466;7.950;2022-09-17T09:48:05;2.67;;;1.87;;
1136;SDS011;557;48.466;7.950;2022-09-17T09:50:59;2.63;;;1.60;;
1136;SDS011;557;48.466;7.950;2022-09-17T09:54:01;3.00;;;1.50;;
1136;SDS011;557;48.466;7.950;2022-09-17T09:56:59;3.63;;;1.60;;
1136;SDS011;557;48.466;7.950;2022-09-17T09:59:50;2.77;;;1.50;;
1136;SDS011;557;48.466;7.950;2022-09-17T10:02:57;3.00;;;2.13;;
1136;SDS011;557;48.466;7.950;2022-09-17T10:05:51;2.67;;;1.67;;
1136;SDS011;557;48.466;7.950;2022-09-17T10:08:42;3.70;;;1.80;;
1136;SDS011;557;48.466;7.950;2022-09-17T10:12:04;2.47;;;1.60;;
1136;SDS011;557;48.466;7.950;2022-09-17T10:15:00;3.50;;;1.60;;
1136;SDS011;557;48.466;7.950;2022-09-17T10:18:11;3.90;;;1.97;;
1136;SDS011;557;48.466;7.950;2022-09-17T10:21:00;2.80;;;1.67;;
1136;SDS011;557;48.466;7.950;2022-09-17T10:23:46;2.53;;;1.70;;
1136;SDS011;557;48.466;7.950;2022-09-17T10:26:34;2.30;;;1.70;;
1136;SDS011;557;48.466;7.950;2022-09-17T10:29:20;4.90;;;1.70;;
1136;SDS011;557;48.466;7.950;2022-09-17T10:32:11;4.40;;;1.70;;
1136;SDS011;557;48.466;7.950;2022-09-17T10:35:00;4.53;;;2.30;;
1136;SDS011;557;48.466;7.950;2022-09-17T10:37:48;3.30;;;2.13;;
1136;SDS011;557;48.466;7.950;2022-09-17T10:40:35;5.55;;;2.30;;
1136;SDS011;557;48.466;7.950;2022-09-17T10:43:22;3.47;;;1.83;;
1136;SDS011;557;48.466;7.950;2022-09-17T10:46:09;3.47;;;1.70;;
1136;SDS011;557;48.466;7.950;2022-09-17T10:49:04;2.13;;;1.50;;
1136;SDS011;557;48.466;7.950;2022-09-17T10:52:02;2.27;;;1.60;;
1136;SDS011;557;48.466;7.950;2022-09-17T10:58:02;4.60;;;2.00;;
1136;SDS011;557;48.466;7.950;2022-09-17T11:01:00;3.70;;;1.67;;
1136;SDS011;557;48.466;7.950;2022-09-17T11:03:59;3.07;;;1.70;;
1136;SDS011;557;48.466;7.950;2022-09-17T11:07:03;2.10;;;1.47;;
1136;SDS011;557;48.466;7.950;2022-09-17T11:10:17;4.33;;;1.60;;
1136;SDS011;557;48.466;7.950;2022-09-17T11:13:11;3.73;;;2.17;;
1136;SDS011;557;48.466;7.950;2022-09-17T11:19:18;3.17;;;1.87;;
1136;SDS011;557;48.466;7.950;2022-09-17T11:22:16;3.10;;;1.80;;
1136;SDS011;557;48.466;7.950;2022-09-17T11:25:16;2.70;;;1.90;;
1136;SDS011;557;48.466;7.950;2022-09-17T11:28:14;3.43;;;2.60;;
1136;SDS011;557;48.466;7.950;2022-09-17T11:31:13;2.50;;;2.30;;
1136;SDS011;557;48.466;7.950;2022-09-17T11:34:22;2.60;;;2.40;;
1136;SDS011;557;48.466;7.950;2022-09-17T11:37:14;3.53;;;2.90;;
1136;SDS011;557;48.466;7.950;2022-09-17T11:40:05;3.43;;;3.23;;
1136;SDS011;557;48.466;7.950;2022-09-17T11:42:59;3.63;;;2.93;;
1136;SDS011;557;48.466;7.950;2022-09-17T11:45:54;3.73;;;3.53;;
1136;SDS011;557;48.466;7.950;2022-09-17T11:48:45;4.90;;;4.40;;
1136;SDS011;557;48.466;7.950;2022-09-17T11:51:37;4.90;;;4.60;;
1136;SDS011;557;48.466;7.950;2022-09-17T11:54:27;4.40;;;4.10;;
1136;SDS011;557;48.466;7.950;2022-09-17T11:57:18;4.17;;;3.97;;
1136;SDS011;557;48.466;7.950;2022-09-17T12:00:11;3.70;;;3.50;;
1136;SDS011;557;48.466;7.950;2022-09-17T12:03:01;3.97;;;3.77;;
1136;SDS011;557;48.466;7.950;2022-09-17T12:05:53;4.23;;;3.93;;
1136;SDS011;557;48.466;7.950;2022-09-17T12:08:44;4.50;;;4.20;;
1136;SDS011;557;48.466;7.950;2022-09-17T12:11:39;4.80;;;4.50;;
1136;SDS011;557;48.466;7.950;2022-09-17T12:14:28;4.60;;;4.30;;
1136;SDS011;557;48.466;7.950;2022-09-17T12:17:20;4.27;;;4.00;;
1136;SDS011;557;48.466;7.950;2022-09-17T12:20:13;4.50;;;4.20;;
1136;SDS011;557;48.466;7.950;2022-09-17T12:23:09;5.00;;;4.40;;
1136;SDS011;557;48.466;7.950;2022-09-17T12:26:01;4.60;;;4.30;;
1136;SDS011;557;48.466;7.950;2022-09-17T12:28:56;7.37;;;3.70;;
1136;SDS011;557;48.466;7.950;2022-09-17T12:31:48;3.97;;;3.20;;
1136;SDS011;557;48.466;7.950;2022-09-17T12:34:43;2.27;;;1.60;;
1136;SDS011;557;48.466;7.950;2022-09-17T12:37:39;2.90;;;2.27;;
1136;SDS011;557;48.466;7.950;2022-09-17T12:40:33;3.97;;;2.23;;
1136;SDS011;557;48.466;7.950;2022-09-17T12:43:37;3.73;;;2.33;;
1136;SDS011;557;48.466;7.950;2022-09-17T12:46:39;5.03;;;2.40;;
1136;SDS011;557;48.466;7.950;2022-09-17T12:49:48;3.00;;;2.73;;
1136;SDS011;557;48.466;7.950;2022-09-17T12:52:54;3.60;;;3.30;;
1136;SDS011;557;48.466;7.950;2022-09-17T12:55:56;4.03;;;3.73;;
1136;SDS011;557;48.466;7.950;2022-09-17T12:59:06;4.30;;;3.90;;
1136;SDS011;557;48.466;7.950;2022-09-17T13:01:55;4.40;;;4.00;;
1136;SDS011;557;48.466;7.950;2022-09-17T13:04:51;6.87;;;4.20;;
1136;SDS011;557;48.466;7.950;2022-09-17T13:11:10;5.37;;;4.83;;
1136;SDS011;557;48.466;7.950;2022-09-17T13:14:12;5.43;;;5.13;;
1136;SDS011;557;48.466;7.950;2022-09-17T13:17:05;6.17;;;5.60;;
1136;SDS011;557;48.466;7.950;2022-09-17T13:19:57;7.50;;;7.00;;
1136;SDS011;557;48.466;7.950;2022-09-17T13:22:48;7.30;;;6.90;;
1136;SDS011;557;48.466;7.950;2022-09-17T13:25:41;7.87;;;7.40;;
1136;SDS011;557;48.466;7.950;2022-09-17T13:28:40;8.00;;;7.50;;
1136;SDS011;557;48.466;7.950;2022-09-17T13:34:33;8.53;;;7.93;;
1136;SDS011;557;48.466;7.950;2022-09-17T13:37:20;8.10;;;7.70;;
1136;SDS011;557;48.466;7.950;2022-09-17T13:40:16;8.47;;;7.77;;
1136;SDS011;557;48.466;7.950;2022-09-17T13:43:06;8.63;;;7.80;;
1136;SDS011;557;48.466;7.950;2022-09-17T13:46:05;7.70;;;7.30;;
1136;SDS011;557;48.466;7.950;2022-09-17T13:48:59;8.27;;;7.77;;
1136;SDS011;557;48.466;7.950;2022-09-17T13:51:47;7.40;;;7.10;;
1136;SDS011;557;48.466;7.950;2022-09-17T13:54:36;8.17;;;7.57;;
1136;SDS011;557;48.466;7.950;2022-09-17T13:57:22;8.10;;;7.70;;
1136;SDS011;557;48.466;7.950;2022-09-17T14:00:27;8.27;;;7.87;;
1136;SDS011;557;48.466;7.950;2022-09-17T14:06:50;8.87;;;8.27;;
1136;SDS011;557;48.466;7.950;2022-09-17T14:09:50;8.23;;;7.83;;
1136;SDS011;557;48.466;7.950;2022-09-17T14:12:57;7.50;;;7.10;;
1136;SDS011;557;48.466;7.950;2022-09-17T14:16:24;7.63;;;7.23;;
1136;SDS011;557;48.466;7.950;2022-09-17T14:19:20;7.40;;;7.00;;
1136;SDS011;557;48.466;7.950;2022-09-17T14:22:15;8.23;;;7.73;;
1136;SDS011;557;48.466;7.950;2022-09-17T14:25:13;7.40;;;6.90;;
1136;SDS011;557;48.466;7.950;2022-09-17T14:28:01;7.90;;;7.50;;
1136;SDS011;557;48.466;7.950;2022-09-17T14:30:51;8.40;;;7.90;;
1136;SDS011;557;48.466;7.950;2022-09-17T14:33:37;9.10;;;8.63;;
1136;SDS011;557;48.466;7.950;2022-09-17T14:36:24;9.30;;;8.80;;
1136;SDS011;557;48.466;7.950;2022-09-17T14:39:12;8.50;;;8.03;;
1136;SDS011;557;48.466;7.950;2022-09-17T14:42:04;8.63;;;8.17;;
1136;SDS011;557;48.466;7.950;2022-09-17T14:44:58;9.00;;;8.30;;
1136;SDS011;557;48.466;7.950;2022-09-17T14:47:45;7.73;;;7.33;;
1136;SDS011;557;48.466;7.950;2022-09-17T14:50:32;9.83;;;9.17;;
1136;SDS011;557;48.466;7.950;2022-09-17T14:53:18;8.33;;;7.93;;
1136;SDS011;557;48.466;7.950;2022-09-17T14:56:07;9.20;;;8.40;;
1136;SDS011;557;48.466;7.950;2022-09-17T14:58:55;9.40;;;8.70;;
1136;SDS011;557;48.466;7.950;2022-09-17T15:01:44;8.50;;;8.07;;
1136;SDS011;557;48.466;7.950;2022-09-17T15:04:31;8.90;;;8.40;;
1136;SDS011;557;48.466;7.950;2022-09-17T15:07:18;8.30;;;7.90;;
1136;SDS011;557;48.466;7.950;2022-09-17T15:10:06;9.37;;;8.67;;
1136;SDS011;557;48.466;7.950;2022-09-17T15:12:55;9.60;;;8.90;;
1136;SDS011;557;48.466;7.950;2022-09-17T15:15:48;8.27;;;7.70;;
1136;SDS011;557;48.466;7.950;2022-09-17T15:18:40;8.30;;;7.90;;
1136;SDS011;557;48.466;7.950;2022-09-17T15:21:28;7.73;;;7.33;;
1136;SDS011;557;48.466;7.950;2022-09-17T15:24:19;7.40;;;7.00;;
1136;SDS011;557;48.466;7.950;2022-09-17T15:27:18;7.50;;;7.00;;
1136;SDS011;557;48.466;7.950;2022-09-17T15:30:10;7.37;;;6.97;;
1136;SDS011;557;48.466;7.950;2022-09-17T15:32:59;8.27;;;7.70;;
1136;SDS011;557;48.466;7.950;2022-09-17T15:35:57;7.87;;;7.07;;
1136;SDS011;557;48.466;7.950;2022-09-17T15:38:45;7.40;;;6.90;;
1136;SDS011;557;48.466;7.950;2022-09-17T15:41:32;7.87;;;7.10;;
1136;SDS011;557;48.466;7.950;2022-09-17T15:44:19;7.93;;;7.33;;
1136;SDS011;557;48.466;7.950;2022-09-17T15:50:30;7.10;;;6.50;;
1136;SDS011;557;48.466;7.950;2022-09-17T15:53:20;7.23;;;6.73;;
1136;SDS011;557;48.466;7.950;2022-09-17T15:56:07;7.07;;;6.57;;
1136;SDS011;557;48.466;7.950;2022-09-17T15:59:01;6.97;;;6.27;;
1136;SDS011;557;48.466;7.950;2022-09-17T16:01:49;6.90;;;6.50;;
1136;SDS011;557;48.466;7.950;2022-09-17T16:04:38;7.37;;;6.87;;
1136;SDS011;557;48.466;7.950;2022-09-17T16:07:27;6.90;;;6.40;;
1136;SDS011;557;48.466;7.950;2022-09-17T16:10:14;7.00;;;6.30;;
1136;SDS011;557;48.466;7.950;2022-09-17T16:13:00;7.00;;;6.50;;
1136;SDS011;557;48.466;7.950;2022-09-17T16:15:45;6.90;;;6.50;;
1136;SDS011;557;48.466;7.950;2022-09-17T16:18:32;6.87;;;6.30;;
1136;SDS011;557;48.466;7.950;2022-09-17T16:21:19;5.97;;;5.67;;
1136;SDS011;557;48.466;7.950;2022-09-17T16:24:04;6.20;;;5.30;;
1136;SDS011;557;48.466;7.950;2022-09-17T16:26:50;4.37;;;4.07;;
1136;SDS011;557;48.466;7.950;2022-09-17T16:29:35;6.40;;;4.30;;
1136;SDS011;557;48.466;7.950;2022-09-17T16:32:21;2.67;;;2.47;;
1136;SDS011;557;48.466;7.950;2022-09-17T16:35:09;4.50;;;1.70;;
1136;SDS011;557;48.466;7.950;2022-09-17T16:37:57;3.00;;;1.90;;
1136;SDS011;557;48.466;7.950;2022-09-17T16:40:44;3.67;;;2.53;;
1136;SDS011;557;48.466;7.950;2022-09-17T16:43:30;3.40;;;1.83;;
1136;SDS011;557;48.466;7.950;2022-09-17T16:46:16;3.83;;;1.43;;
1136;SDS011;557;48.466;7.950;2022-09-17T16:49:02;3.43;;;1.83;;
1136;SDS011;557;48.466;7.950;2022-09-17T16:51:47;5.90;;;1.67;;
1136;SDS011;557;48.466;7.950;2022-09-17T16:54:35;9.23;;;5.67;;
1136;SDS011;557;48.466;7.950;2022-09-17T16:57:20;5.03;;;2.27;;
1136;SDS011;557;48.466;7.950;2022-09-17T17:00:07;8.83;;;5.67;;
1136;SDS011;557;48.466;7.950;2022-09-17T17:02:56;4.00;;;2.43;;
1136;SDS011;557;48.466;7.950;2022-09-17T17:05:41;3.10;;;1.80;;
1136;SDS011;557;48.466;7.950;2022-09-17T17:08:27;2.40;;;1.47;;
1136;SDS011;557;48.466;7.950;2022-09-17T17:11:14;2.47;;;1.30;;
1136;SDS011;557;48.466;7.950;2022-09-17T17:13:59;2.07;;;1.40;;
1136;SDS011;557;48.466;7.950;2022-09-17T17:16:47;3.17;;;2.10;;
1136;SDS011;557;48.466;7.950;2022-09-17T17:19:33;2.97;;;1.80;;
1136;SDS011;557;48.466;7.950;2022-09-17T17:22:19;2.87;;;1.60;;
1136;SDS011;557;48.466;7.950;2022-09-17T17:25:05;2.93;;;1.43;;
1136;SDS011;557;48.466;7.950;2022-09-17T17:27:53;2.53;;;1.37;;
1136;SDS011;557;48.466;7.950;2022-09-17T17:30:38;3.73;;;1.17;;
1136;SDS011;557;48.466;7.950;2022-09-17T17:33:24;2.17;;;1.10;;
1136;SDS011;557;48.466;7.950;2022-09-17T17:36:10;1.90;;;1.07;;
1136;SDS011;557;48.466;7.950;2022-09-17T17:38:56;8.60;;;1.33;;
1136;SDS011;557;48.466;7.950;2022-09-17T17:41:42;2.00;;;1.10;;
1136;SDS011;557;48.466;7.950;2022-09-17T17:44:29;1.57;;;0.97;;
1136;SDS011;557;48.466;7.950;2022-09-17T17:47:14;2.27;;;1.60;;
1136;SDS011;557;48.466;7.950;2022-09-17T17:50:00;4.10;;;1.30;;
1136;SDS011;557;48.466;7.950;2022-09-17T17:52:45;1.77;;;1.10;;
1136;SDS011;557;48.466;7.950;2022-09-17T17:55:32;2.30;;;1.30;;
1136;SDS011;557;48.466;7.950;2022-09-17T17:58:17;1.77;;;0.90;;
1136;SDS011;557;48.466;7.950;2022-09-17T18:01:09;3.00;;;1.43;;
1136;SDS011;557;48.466;7.950;2022-09-17T18:03:57;2.43;;;0.90;;
1136;SDS011;557;48.466;7.950;2022-09-17T18:06:44;3.30;;;1.00;;
1136;SDS011;557;48.466;7.950;2022-09-17T18:09:31;1.47;;;0.80;;
1136;SDS011;557;48.466;7.950;2022-09-17T18:12:17;1.70;;;0.90;;
1136;SDS011;557;48.466;7.950;2022-09-17T18:15:02;1.43;;;0.77;;